SWA2323 KDFW-KBNA
Flight info
| Callsign | SWA2323 |
|---|---|
| Flight time | N/A |
| Altitude | 37000 |
| Route | TRYTN4 LOOSE WASKO Q34 MEMFS CHSNE3 |
| Aircraft | B38M/M-SDE1FGHILORVWXY/HB1 |
Departure
| Time | 2026-05-04 04:02 |
|---|---|
| Airport | Dallas Fort Worth International Airport (KDFW) |
Arrival
| Time | N/A |
|---|---|
| Airport | Nashville International Airport (KBNA) |
| Time | Latitude | Longitude | Altitude | Speed | Heading |
|---|---|---|---|---|---|
| 2026-05-04 03:36 | 32.90547 | -97.03505 | 589 ft | 0 kts | 268° |
| 2026-05-04 03:50 | 32.90547 | -97.03500 | 589 ft | 2 kts | 269° |
| 2026-05-04 03:50 | 32.90546 | -97.03478 | 589 ft | 3 kts | 277° |
| 2026-05-04 03:50 | 32.90543 | -97.03454 | 589 ft | 3 kts | 278° |
| 2026-05-04 03:50 | 32.90542 | -97.03435 | 589 ft | 3 kts | 279° |
| 2026-05-04 03:51 | 32.90535 | -97.03415 | 589 ft | 3 kts | 320° |
| 2026-05-04 03:51 | 32.90519 | -97.03408 | 589 ft | 3 kts | 357° |
| 2026-05-04 03:51 | 32.90506 | -97.03407 | 589 ft | 0 kts | 0° |
| 2026-05-04 03:57 | 32.90509 | -97.03407 | 589 ft | 1 kts | 0° |
| 2026-05-04 03:57 | 32.90524 | -97.03407 | 589 ft | 3 kts | 0° |
| 2026-05-04 03:58 | 32.90586 | -97.03404 | 589 ft | 5 kts | 16° |
| 2026-05-04 03:58 | 32.90603 | -97.03381 | 589 ft | 4 kts | 73° |
| 2026-05-04 03:58 | 32.90605 | -97.03341 | 589 ft | 6 kts | 91° |
| 2026-05-04 03:59 | 32.90604 | -97.03270 | 583 ft | 13 kts | 90° |
| 2026-05-04 03:59 | 32.90668 | -97.03190 | 578 ft | 16 kts | 356° |
| 2026-05-04 03:59 | 32.90774 | -97.03190 | 579 ft | 15 kts | 0° |
| 2026-05-04 03:59 | 32.90873 | -97.03189 | 582 ft | 14 kts | 0° |
| 2026-05-04 04:00 | 32.90976 | -97.03188 | 581 ft | 16 kts | 0° |
| 2026-05-04 04:00 | 32.91099 | -97.03186 | 582 ft | 19 kts | 0° |
| 2026-05-04 04:00 | 32.91233 | -97.03187 | 583 ft | 20 kts | 0° |
| 2026-05-04 04:00 | 32.91376 | -97.03179 | 581 ft | 22 kts | 20° |
| 2026-05-04 04:01 | 32.91416 | -97.03091 | 585 ft | 12 kts | 91° |
| 2026-05-04 04:01 | 32.91392 | -97.02999 | 583 ft | 12 kts | 140° |
| 2026-05-04 04:01 | 32.91301 | -97.02986 | 581 ft | 14 kts | 181° |
| 2026-05-04 04:01 | 32.91174 | -97.02988 | 581 ft | 25 kts | 180° |
| 2026-05-04 04:02 | 32.90838 | -97.02990 | 576 ft | 85 kts | 180° |
| 2026-05-04 04:02 | 32.90000 | -97.02995 | 578 ft | 152 kts | 180° |
| 2026-05-04 04:02 | 32.88778 | -97.03045 | 778 ft | 195 kts | 182° |
| 2026-05-04 04:02 | 32.87385 | -97.02996 | 1718 ft | 197 kts | 178° |
| 2026-05-04 04:03 | 32.86491 | -97.02942 | 2599 ft | 194 kts | 180° |
| 2026-05-04 04:03 | 32.85083 | -97.02779 | 3290 ft | 216 kts | 167° |
| 2026-05-04 04:03 | 32.83611 | -97.02089 | 3892 ft | 238 kts | 162° |
| 2026-05-04 04:03 | 32.82025 | -97.01322 | 4579 ft | 254 kts | 162° |
| 2026-05-04 04:04 | 32.80383 | -97.00526 | 5573 ft | 257 kts | 162° |
| 2026-05-04 04:04 | 32.78794 | -96.99451 | 6410 ft | 274 kts | 141° |
| 2026-05-04 04:04 | 32.77689 | -96.97574 | 7298 ft | 284 kts | 116° |
| 2026-05-04 04:04 | 32.76973 | -96.95346 | 8095 ft | 292 kts | 113° |
| 2026-05-04 04:05 | 32.76580 | -96.92964 | 8978 ft | 298 kts | 91° |
| 2026-05-04 04:05 | 32.76656 | -96.90486 | 9833 ft | 304 kts | 89° |
| 2026-05-04 04:05 | 32.76728 | -96.87949 | 10518 ft | 313 kts | 89° |
| 2026-05-04 04:05 | 32.76812 | -96.85285 | 10900 ft | 333 kts | 89° |
| 2026-05-04 04:06 | 32.77066 | -96.82481 | 11324 ft | 349 kts | 75° |
| 2026-05-04 04:06 | 32.77789 | -96.79690 | 11936 ft | 358 kts | 73° |
| 2026-05-04 04:06 | 32.78520 | -96.76854 | 12686 ft | 361 kts | 73° |
| 2026-05-04 04:06 | 32.79262 | -96.73984 | 13402 ft | 366 kts | 73° |
| 2026-05-04 04:07 | 32.80017 | -96.71068 | 14084 ft | 371 kts | 73° |
| 2026-05-04 04:07 | 32.80778 | -96.68126 | 14730 ft | 374 kts | 73° |
| 2026-05-04 04:07 | 32.81546 | -96.65157 | 15356 ft | 378 kts | 73° |
| 2026-05-04 04:07 | 32.82321 | -96.62153 | 15972 ft | 382 kts | 73° |
| 2026-05-04 04:08 | 32.83095 | -96.59155 | 16570 ft | 386 kts | 72° |
| 2026-05-04 04:08 | 32.83886 | -96.56085 | 17204 ft | 390 kts | 72° |
| 2026-05-04 04:08 | 32.84684 | -96.52985 | 17778 ft | 394 kts | 72° |
| 2026-05-04 04:08 | 32.85490 | -96.49849 | 18354 ft | 398 kts | 72° |
| 2026-05-04 04:09 | 32.86300 | -96.46698 | 18850 ft | 401 kts | 72° |
| 2026-05-04 04:09 | 32.87117 | -96.43515 | 19379 ft | 404 kts | 72° |
| 2026-05-04 04:09 | 32.87939 | -96.40305 | 19891 ft | 407 kts | 72° |
| 2026-05-04 04:09 | 32.88767 | -96.37070 | 20365 ft | 411 kts | 72° |
| 2026-05-04 04:10 | 32.89614 | -96.33813 | 20837 ft | 414 kts | 69° |
| 2026-05-04 04:10 | 32.90667 | -96.30616 | 21314 ft | 417 kts | 66° |
| 2026-05-04 04:10 | 32.91731 | -96.27392 | 21771 ft | 420 kts | 67° |
| 2026-05-04 04:10 | 32.92791 | -96.24136 | 22235 ft | 424 kts | 67° |
| 2026-05-04 04:11 | 32.93853 | -96.20851 | 22694 ft | 427 kts | 67° |
| 2026-05-04 04:11 | 32.94921 | -96.17536 | 23146 ft | 430 kts | 67° |
| 2026-05-04 04:11 | 32.95994 | -96.14200 | 23587 ft | 434 kts | 66° |
| 2026-05-04 04:11 | 32.97078 | -96.10828 | 23963 ft | 437 kts | 66° |
| 2026-05-04 04:12 | 32.98167 | -96.07434 | 24327 ft | 440 kts | 66° |
| 2026-05-04 04:12 | 32.99263 | -96.04015 | 24694 ft | 443 kts | 65° |
| 2026-05-04 04:12 | 33.00364 | -96.00575 | 25043 ft | 446 kts | 65° |
| 2026-05-04 04:12 | 33.01460 | -95.97149 | 25383 ft | 450 kts | 65° |
| 2026-05-04 04:13 | 33.02591 | -95.93608 | 25758 ft | 452 kts | 65° |
| 2026-05-04 04:13 | 33.03708 | -95.90106 | 26117 ft | 455 kts | 65° |
| 2026-05-04 04:13 | 33.04821 | -95.86616 | 26466 ft | 458 kts | 64° |
| 2026-05-04 04:13 | 33.05961 | -95.83059 | 26787 ft | 461 kts | 64° |
| 2026-05-04 04:14 | 33.07110 | -95.79488 | 27119 ft | 464 kts | 64° |
| 2026-05-04 04:14 | 33.08269 | -95.75880 | 27440 ft | 467 kts | 64° |
| 2026-05-04 04:14 | 33.09430 | -95.72257 | 27764 ft | 469 kts | 64° |
| 2026-05-04 04:14 | 33.10613 | -95.68561 | 28098 ft | 472 kts | 64° |
| 2026-05-04 04:15 | 33.11766 | -95.64960 | 28450 ft | 474 kts | 63° |
| 2026-05-04 04:15 | 33.12944 | -95.61274 | 28786 ft | 477 kts | 63° |
| 2026-05-04 04:15 | 33.14127 | -95.57566 | 29092 ft | 479 kts | 63° |
| 2026-05-04 04:15 | 33.15315 | -95.53841 | 29392 ft | 482 kts | 63° |
| 2026-05-04 04:16 | 33.16507 | -95.50096 | 29685 ft | 484 kts | 63° |
| 2026-05-04 04:16 | 33.17707 | -95.46323 | 29972 ft | 487 kts | 63° |
| 2026-05-04 04:16 | 33.18909 | -95.42540 | 30235 ft | 489 kts | 63° |
| 2026-05-04 04:16 | 33.20117 | -95.38727 | 30475 ft | 492 kts | 63° |
| 2026-05-04 04:17 | 33.21329 | -95.34903 | 30711 ft | 494 kts | 63° |
| 2026-05-04 04:17 | 33.22549 | -95.31048 | 30954 ft | 496 kts | 63° |
| 2026-05-04 04:17 | 33.23768 | -95.27190 | 31215 ft | 498 kts | 63° |
| 2026-05-04 04:17 | 33.24996 | -95.23300 | 31436 ft | 501 kts | 63° |
| 2026-05-04 04:18 | 33.26224 | -95.19404 | 31665 ft | 503 kts | 63° |
| 2026-05-04 04:18 | 33.27447 | -95.15520 | 31891 ft | 505 kts | 63° |
| 2026-05-04 04:18 | 33.28686 | -95.11581 | 32110 ft | 508 kts | 63° |
| 2026-05-04 04:18 | 33.29926 | -95.07630 | 32330 ft | 510 kts | 63° |
| 2026-05-04 04:19 | 33.31174 | -95.03653 | 32541 ft | 513 kts | 63° |
| 2026-05-04 04:19 | 33.32426 | -94.99655 | 32750 ft | 515 kts | 63° |
| 2026-05-04 04:19 | 33.33682 | -94.95641 | 32981 ft | 516 kts | 62° |
| 2026-05-04 04:19 | 33.34941 | -94.91609 | 33324 ft | 516 kts | 62° |
| 2026-05-04 04:20 | 33.36196 | -94.87590 | 33624 ft | 516 kts | 62° |
| 2026-05-04 04:20 | 33.37450 | -94.83564 | 33885 ft | 517 kts | 62° |
| 2026-05-04 04:20 | 33.38701 | -94.79541 | 34138 ft | 518 kts | 62° |
| 2026-05-04 04:20 | 33.39957 | -94.75500 | 34373 ft | 518 kts | 62° |
| 2026-05-04 04:21 | 33.41210 | -94.71463 | 34614 ft | 518 kts | 62° |
| 2026-05-04 04:21 | 33.42462 | -94.67421 | 34851 ft | 518 kts | 62° |
| 2026-05-04 04:21 | 33.43715 | -94.63375 | 35087 ft | 518 kts | 62° |
| 2026-05-04 04:21 | 33.44966 | -94.59326 | 35311 ft | 518 kts | 62° |
| 2026-05-04 04:22 | 33.46214 | -94.55285 | 35537 ft | 518 kts | 62° |
| 2026-05-04 04:22 | 33.47456 | -94.51255 | 35790 ft | 517 kts | 62° |
| 2026-05-04 04:22 | 33.48698 | -94.47218 | 35993 ft | 517 kts | 62° |
| 2026-05-04 04:22 | 33.49926 | -94.43224 | 36190 ft | 517 kts | 62° |
| 2026-05-04 04:23 | 33.51183 | -94.39133 | 36381 ft | 517 kts | 62° |
| 2026-05-04 04:23 | 33.52428 | -94.35076 | 36578 ft | 517 kts | 62° |
| 2026-05-04 04:23 | 33.53649 | -94.31092 | 36757 ft | 517 kts | 62° |
| 2026-05-04 04:23 | 33.54884 | -94.27042 | 36933 ft | 517 kts | 62° |
| 2026-05-04 04:24 | 33.56092 | -94.22985 | 37081 ft | 518 kts | 62° |
| 2026-05-04 04:24 | 33.57304 | -94.18919 | 37125 ft | 518 kts | 62° |
| 2026-05-04 04:24 | 33.59982 | -94.09933 | 37078 ft | 516 kts | 62° |
| 2026-05-04 04:25 | 33.64798 | -93.93734 | 37086 ft | 516 kts | 62° |
| 2026-05-04 04:25 | 33.69592 | -93.77475 | 37098 ft | 517 kts | 62° |
| 2026-05-04 04:26 | 33.74352 | -93.61233 | 37069 ft | 516 kts | 62° |
| 2026-05-04 04:26 | 33.79105 | -93.44979 | 37061 ft | 515 kts | 62° |
| 2026-05-04 04:27 | 33.83838 | -93.28689 | 37063 ft | 516 kts | 63° |
| 2026-05-04 04:27 | 33.88504 | -93.12494 | 37069 ft | 516 kts | 63° |
| 2026-05-04 04:28 | 33.91610 | -93.03275 | 37097 ft | 509 kts | 57° |
| 2026-05-04 04:28 | 33.94494 | -92.95523 | 37057 ft | 504 kts | 57° |
| 2026-05-04 04:29 | 33.99569 | -92.81862 | 37068 ft | 505 kts | 57° |
| 2026-05-04 04:29 | 34.05272 | -92.66382 | 37079 ft | 505 kts | 58° |
| 2026-05-04 04:30 | 34.11012 | -92.50972 | 37057 ft | 502 kts | 57° |
| 2026-05-04 04:30 | 34.16744 | -92.35593 | 37059 ft | 502 kts | 57° |
| 2026-05-04 04:31 | 34.21681 | -92.22243 | 37094 ft | 501 kts | 58° |
| 2026-05-04 04:31 | 34.25335 | -92.12318 | 37070 ft | 499 kts | 58° |
| 2026-05-04 04:32 | 34.30935 | -91.97071 | 37069 ft | 499 kts | 58° |
| 2026-05-04 04:32 | 34.36556 | -91.81689 | 37063 ft | 499 kts | 59° |
| 2026-05-04 04:33 | 34.42123 | -91.66348 | 37058 ft | 498 kts | 59° |
| 2026-05-04 04:33 | 34.47701 | -91.50969 | 37108 ft | 498 kts | 59° |
| 2026-05-04 04:34 | 34.53238 | -91.35614 | 37068 ft | 496 kts | 59° |
| 2026-05-04 04:34 | 34.58734 | -91.20243 | 37061 ft | 497 kts | 59° |
| 2026-05-04 04:35 | 34.64226 | -91.04878 | 37055 ft | 495 kts | 59° |
| 2026-05-04 04:35 | 34.69677 | -90.89522 | 37055 ft | 495 kts | 60° |
| 2026-05-04 04:36 | 34.75100 | -90.74146 | 37086 ft | 495 kts | 60° |
| 2026-05-04 04:36 | 34.80499 | -90.58813 | 37064 ft | 493 kts | 60° |
| 2026-05-04 04:37 | 34.91190 | -90.28144 | 37051 ft | 493 kts | 61° |
| 2026-05-04 04:38 | 34.96535 | -90.12734 | 37050 ft | 493 kts | 60° |
| 2026-05-04 04:38 | 35.01849 | -89.97357 | 37073 ft | 493 kts | 62° |
| 2026-05-04 04:39 | 35.07022 | -89.81876 | 37065 ft | 493 kts | 62° |
| 2026-05-04 04:39 | 35.12195 | -89.66363 | 37066 ft | 492 kts | 62° |
| 2026-05-04 04:40 | 35.17367 | -89.50858 | 37058 ft | 493 kts | 62° |
| 2026-05-04 04:40 | 35.22497 | -89.35338 | 37061 ft | 494 kts | 63° |
| 2026-05-04 04:41 | 35.26659 | -89.22724 | 37088 ft | 493 kts | 62° |
| 2026-05-04 04:41 | 35.29203 | -89.14950 | 37059 ft | 492 kts | 62° |
| 2026-05-04 04:42 | 35.31742 | -89.07193 | 37064 ft | 493 kts | 62° |
| 2026-05-04 04:42 | 35.34293 | -88.99379 | 37065 ft | 493 kts | 62° |
| 2026-05-04 04:43 | 35.36832 | -88.91584 | 37065 ft | 493 kts | 62° |
| 2026-05-04 04:43 | 35.39371 | -88.83766 | 36803 ft | 492 kts | 62° |
| 2026-05-04 04:44 | 35.40642 | -88.79845 | 35784 ft | 499 kts | 62° |
| 2026-05-04 04:44 | 35.41930 | -88.75869 | 34919 ft | 500 kts | 62° |
| 2026-05-04 04:44 | 35.43184 | -88.71992 | 34313 ft | 490 kts | 62° |
| 2026-05-04 04:44 | 35.44430 | -88.68135 | 33678 ft | 480 kts | 62° |
| 2026-05-04 04:45 | 35.45643 | -88.64366 | 33080 ft | 470 kts | 63° |
| 2026-05-04 04:45 | 35.46824 | -88.60695 | 32587 ft | 458 kts | 63° |
| 2026-05-04 04:45 | 35.47980 | -88.57100 | 32181 ft | 445 kts | 63° |
| 2026-05-04 04:47 | 35.54808 | -88.35779 | 29130 ft | 448 kts | 63° |
| 2026-05-04 04:47 | 35.55941 | -88.32224 | 28566 ft | 447 kts | 63° |
| 2026-05-04 04:47 | 35.57070 | -88.28680 | 28047 ft | 445 kts | 64° |
| 2026-05-04 04:47 | 35.58196 | -88.25139 | 27561 ft | 442 kts | 64° |
| 2026-05-04 04:48 | 35.59312 | -88.21628 | 27074 ft | 440 kts | 64° |
| 2026-05-04 04:49 | 35.63725 | -88.07713 | 25126 ft | 434 kts | 64° |
| 2026-05-04 04:49 | 35.64816 | -88.04267 | 24693 ft | 431 kts | 64° |
| 2026-05-04 04:49 | 35.65899 | -88.00841 | 24243 ft | 430 kts | 64° |
| 2026-05-04 04:49 | 35.66969 | -87.97450 | 23797 ft | 428 kts | 64° |
| 2026-05-04 04:50 | 35.68045 | -87.94040 | 23290 ft | 427 kts | 64° |
| 2026-05-04 04:50 | 35.69115 | -87.90644 | 22804 ft | 424 kts | 64° |
| 2026-05-04 04:50 | 35.70175 | -87.87273 | 22371 ft | 420 kts | 65° |
| 2026-05-04 04:50 | 35.71226 | -87.83929 | 21931 ft | 417 kts | 65° |
| 2026-05-04 04:51 | 35.72274 | -87.80592 | 21309 ft | 419 kts | 65° |
| 2026-05-04 04:51 | 35.73326 | -87.77236 | 20660 ft | 422 kts | 65° |
| 2026-05-04 04:51 | 35.74384 | -87.73859 | 20024 ft | 424 kts | 65° |
| 2026-05-04 04:51 | 35.75435 | -87.70502 | 19380 ft | 423 kts | 66° |
| 2026-05-04 04:52 | 35.76477 | -87.67159 | 18930 ft | 409 kts | 66° |
| 2026-05-04 04:52 | 35.77147 | -87.65012 | 18672 ft | 400 kts | 66° |
| 2026-05-04 04:52 | 35.78438 | -87.60863 | 18231 ft | 385 kts | 66° |
| 2026-05-04 04:52 | 35.79393 | -87.57794 | 17854 ft | 383 kts | 66° |
| 2026-05-04 04:53 | 35.80035 | -87.55724 | 17619 ft | 382 kts | 66° |
| 2026-05-04 04:53 | 35.80971 | -87.52710 | 17290 ft | 379 kts | 66° |
| 2026-05-04 04:53 | 35.81910 | -87.49681 | 16961 ft | 376 kts | 66° |
| 2026-05-04 04:53 | 35.82893 | -87.46704 | 16582 ft | 374 kts | 63° |
| 2026-05-04 04:54 | 35.83936 | -87.43786 | 16275 ft | 369 kts | 63° |
| 2026-05-04 04:54 | 35.84957 | -87.40898 | 15976 ft | 365 kts | 63° |
| 2026-05-04 04:54 | 35.85959 | -87.38051 | 15670 ft | 366 kts | 63° |
| 2026-05-04 04:54 | 35.86966 | -87.35180 | 15357 ft | 364 kts | 63° |
| 2026-05-04 04:55 | 35.87968 | -87.32320 | 15041 ft | 362 kts | 63° |
| 2026-05-04 04:55 | 35.88965 | -87.29474 | 14727 ft | 360 kts | 63° |
| 2026-05-04 04:55 | 35.89957 | -87.26635 | 14413 ft | 358 kts | 63° |
| 2026-05-04 04:55 | 35.90944 | -87.23812 | 14102 ft | 356 kts | 63° |
| 2026-05-04 04:56 | 35.91910 | -87.21044 | 13784 ft | 354 kts | 63° |
| 2026-05-04 04:56 | 35.92878 | -87.18267 | 13442 ft | 351 kts | 63° |
| 2026-05-04 04:56 | 35.93835 | -87.15518 | 13124 ft | 348 kts | 63° |
| 2026-05-04 04:56 | 35.94793 | -87.12766 | 12819 ft | 348 kts | 63° |
| 2026-05-04 04:57 | 35.95748 | -87.10021 | 12521 ft | 347 kts | 63° |
| 2026-05-04 04:57 | 35.96701 | -87.07276 | 12212 ft | 345 kts | 63° |
| 2026-05-04 04:57 | 35.97630 | -87.04601 | 11904 ft | 341 kts | 63° |
| 2026-05-04 04:57 | 35.98561 | -87.01916 | 11606 ft | 337 kts | 63° |
| 2026-05-04 04:58 | 35.99479 | -86.99268 | 11311 ft | 333 kts | 63° |
| 2026-05-04 04:58 | 36.00384 | -86.96654 | 11021 ft | 329 kts | 63° |
| 2026-05-04 04:58 | 36.01277 | -86.94073 | 10737 ft | 325 kts | 63° |
| 2026-05-04 04:58 | 36.02153 | -86.91546 | 10433 ft | 322 kts | 63° |
| 2026-05-04 04:59 | 36.03031 | -86.89010 | 10147 ft | 319 kts | 63° |
| 2026-05-04 04:59 | 36.03897 | -86.86506 | 9876 ft | 315 kts | 63° |
| 2026-05-04 04:59 | 36.04765 | -86.84030 | 9562 ft | 311 kts | 60° |
| 2026-05-04 04:59 | 36.06075 | -86.82001 | 9287 ft | 298 kts | 32° |
| 2026-05-04 05:00 | 36.07877 | -86.80972 | 9024 ft | 285 kts | 12° |
| 2026-05-04 05:00 | 36.09747 | -86.80250 | 8831 ft | 278 kts | 14° |
| 2026-05-04 05:00 | 36.13380 | -86.78813 | 8371 ft | 269 kts | 13° |
| 2026-05-04 05:01 | 36.15150 | -86.78119 | 8124 ft | 264 kts | 13° |
| 2026-05-04 05:01 | 36.16892 | -86.77453 | 7894 ft | 260 kts | 12° |
| 2026-05-04 05:01 | 36.18595 | -86.76814 | 7637 ft | 257 kts | 12° |
| 2026-05-04 05:01 | 36.20296 | -86.76176 | 7384 ft | 253 kts | 12° |
| 2026-05-04 05:02 | 36.21969 | -86.75548 | 7195 ft | 247 kts | 12° |
| 2026-05-04 05:02 | 36.23552 | -86.74952 | 7047 ft | 229 kts | 11° |
| 2026-05-04 05:02 | 36.25046 | -86.74392 | 6668 ft | 224 kts | 11° |
| 2026-05-04 05:02 | 36.26536 | -86.73833 | 6187 ft | 223 kts | 11° |
| 2026-05-04 05:03 | 36.28024 | -86.73276 | 5686 ft | 223 kts | 11° |
| 2026-05-04 05:03 | 36.29515 | -86.72716 | 5192 ft | 223 kts | 11° |
| 2026-05-04 05:04 | 36.31922 | -86.68263 | 3895 ft | 221 kts | 110° |
| 2026-05-04 05:04 | 36.31259 | -86.66706 | 3847 ft | 197 kts | 135° |
| 2026-05-04 05:04 | 36.30408 | -86.65369 | 3694 ft | 197 kts | 136° |
| 2026-05-04 05:06 | 36.23312 | -86.64105 | 2571 ft | 145 kts | 204° |
| 2026-05-04 05:06 | 36.22350 | -86.64483 | 2372 ft | 145 kts | 203° |
| 2026-05-04 05:06 | 36.21404 | -86.64854 | 2166 ft | 136 kts | 204° |
| 2026-05-04 05:07 | 36.20525 | -86.65201 | 1999 ft | 130 kts | 203° |
| 2026-05-04 05:07 | 36.19672 | -86.65537 | 1821 ft | 128 kts | 202° |
| 2026-05-04 05:07 | 36.18822 | -86.65874 | 1639 ft | 129 kts | 202° |